sensor_id;sensor_type;location;lat;lon;timestamp;P1;durP1;ratioP1;P2;durP2;ratioP2
64361;SDS011;50685;53.346;-6.296;2023-04-25T00:01:33;5.78;;;2.22;;
64361;SDS011;50685;53.346;-6.296;2023-04-25T00:04:01;2.80;;;1.48;;
64361;SDS011;50685;53.346;-6.296;2023-04-25T00:06:27;2.75;;;1.85;;
64361;SDS011;50685;53.346;-6.296;2023-04-25T00:08:54;2.08;;;1.13;;
64361;SDS011;50685;53.346;-6.296;2023-04-25T00:11:21;4.15;;;1.33;;
64361;SDS011;50685;53.346;-6.296;2023-04-25T00:13:48;3.20;;;1.38;;
64361;SDS011;50685;53.346;-6.296;2023-04-25T00:16:14;1.63;;;1.50;;
64361;SDS011;50685;53.346;-6.296;2023-04-25T00:18:41;4.05;;;1.45;;
64361;SDS011;50685;53.346;-6.296;2023-04-25T00:21:07;3.10;;;1.02;;
64361;SDS011;50685;53.346;-6.296;2023-04-25T00:23:33;2.25;;;1.23;;
64361;SDS011;50685;53.346;-6.296;2023-04-25T00:26:10;1.65;;;1.35;;
64361;SDS011;50685;53.346;-6.296;2023-04-25T00:28:35;5.18;;;1.55;;
64361;SDS011;50685;53.346;-6.296;2023-04-25T00:31:01;2.08;;;1.17;;
64361;SDS011;50685;53.346;-6.296;2023-04-25T00:33:26;1.92;;;1.20;;
64361;SDS011;50685;53.346;-6.296;2023-04-25T00:35:52;7.82;;;1.52;;
64361;SDS011;50685;53.346;-6.296;2023-04-25T00:38:17;4.95;;;1.20;;
64361;SDS011;50685;53.346;-6.296;2023-04-25T00:40:43;1.25;;;1.15;;
64361;SDS011;50685;53.346;-6.296;2023-04-25T00:43:08;3.15;;;1.65;;
64361;SDS011;50685;53.346;-6.296;2023-04-25T00:45:34;1.67;;;1.58;;
64361;SDS011;50685;53.346;-6.296;2023-04-25T00:48:04;3.90;;;1.15;;
64361;SDS011;50685;53.346;-6.296;2023-04-25T00:50:30;3.92;;;0.98;;
64361;SDS011;50685;53.346;-6.296;2023-04-25T00:52:55;4.53;;;1.05;;
64361;SDS011;50685;53.346;-6.296;2023-04-25T00:55:21;3.08;;;1.63;;
64361;SDS011;50685;53.346;-6.296;2023-04-25T00:57:48;2.00;;;1.20;;
64361;SDS011;50685;53.346;-6.296;2023-04-25T01:00:14;3.47;;;1.20;;
64361;SDS011;50685;53.346;-6.296;2023-04-25T01:02:40;1.05;;;0.98;;
64361;SDS011;50685;53.346;-6.296;2023-04-25T01:05:07;2.15;;;1.00;;
64361;SDS011;50685;53.346;-6.296;2023-04-25T01:07:33;1.27;;;1.00;;
64361;SDS011;50685;53.346;-6.296;2023-04-25T01:09:59;2.13;;;1.58;;
64361;SDS011;50685;53.346;-6.296;2023-04-25T01:12:26;2.85;;;1.30;;
64361;SDS011;50685;53.346;-6.296;2023-04-25T01:14:51;2.85;;;1.33;;
64361;SDS011;50685;53.346;-6.296;2023-04-25T01:17:17;2.25;;;1.60;;
64361;SDS011;50685;53.346;-6.296;2023-04-25T01:19:43;3.42;;;1.52;;
64361;SDS011;50685;53.346;-6.296;2023-04-25T01:22:11;5.38;;;1.88;;
64361;SDS011;50685;53.346;-6.296;2023-04-25T01:24:36;4.63;;;1.90;;
64361;SDS011;50685;53.346;-6.296;2023-04-25T01:27:02;2.53;;;2.33;;
64361;SDS011;50685;53.346;-6.296;2023-04-25T01:29:28;2.63;;;1.73;;
64361;SDS011;50685;53.346;-6.296;2023-04-25T01:31:54;3.83;;;1.67;;
64361;SDS011;50685;53.346;-6.296;2023-04-25T01:34:20;4.05;;;1.95;;
64361;SDS011;50685;53.346;-6.296;2023-04-25T01:36:49;4.20;;;2.03;;
64361;SDS011;50685;53.346;-6.296;2023-04-25T01:39:16;3.47;;;1.73;;
64361;SDS011;50685;53.346;-6.296;2023-04-25T01:41:42;5.60;;;2.20;;
64361;SDS011;50685;53.346;-6.296;2023-04-25T01:44:07;3.42;;;2.13;;
64361;SDS011;50685;53.346;-6.296;2023-04-25T01:46:33;6.07;;;2.00;;
64361;SDS011;50685;53.346;-6.296;2023-04-25T01:48:59;6.40;;;2.30;;
64361;SDS011;50685;53.346;-6.296;2023-04-25T01:51:25;7.43;;;2.20;;
64361;SDS011;50685;53.346;-6.296;2023-04-25T01:53:50;3.70;;;2.33;;
64361;SDS011;50685;53.346;-6.296;2023-04-25T01:56:17;5.60;;;2.35;;
64361;SDS011;50685;53.346;-6.296;2023-04-25T01:58:43;6.15;;;2.13;;
64361;SDS011;50685;53.346;-6.296;2023-04-25T02:01:09;7.40;;;2.13;;
64361;SDS011;50685;53.346;-6.296;2023-04-25T02:03:35;5.15;;;2.67;;
64361;SDS011;50685;53.346;-6.296;2023-04-25T02:06:01;5.30;;;2.38;;
64361;SDS011;50685;53.346;-6.296;2023-04-25T02:08:26;2.83;;;2.50;;
64361;SDS011;50685;53.346;-6.296;2023-04-25T02:10:52;4.93;;;2.83;;
64361;SDS011;50685;53.346;-6.296;2023-04-25T02:13:17;5.90;;;3.65;;
64361;SDS011;50685;53.346;-6.296;2023-04-25T02:15:43;3.97;;;2.40;;
64361;SDS011;50685;53.346;-6.296;2023-04-25T02:18:08;5.03;;;2.50;;
64361;SDS011;50685;53.346;-6.296;2023-04-25T02:20:35;3.97;;;2.88;;
64361;SDS011;50685;53.346;-6.296;2023-04-25T02:23:01;3.80;;;2.25;;
64361;SDS011;50685;53.346;-6.296;2023-04-25T02:25:27;9.85;;;3.03;;
64361;SDS011;50685;53.346;-6.296;2023-04-25T02:27:53;9.20;;;3.22;;
64361;SDS011;50685;53.346;-6.296;2023-04-25T02:30:18;3.60;;;2.60;;
64361;SDS011;50685;53.346;-6.296;2023-04-25T02:32:44;4.97;;;3.15;;
64361;SDS011;50685;53.346;-6.296;2023-04-25T02:35:10;6.38;;;2.88;;
64361;SDS011;50685;53.346;-6.296;2023-04-25T02:37:36;3.97;;;3.08;;
64361;SDS011;50685;53.346;-6.296;2023-04-25T02:40:03;4.43;;;2.85;;
64361;SDS011;50685;53.346;-6.296;2023-04-25T02:42:29;7.80;;;3.17;;
64361;SDS011;50685;53.346;-6.296;2023-04-25T02:44:55;4.35;;;2.47;;
64361;SDS011;50685;53.346;-6.296;2023-04-25T02:47:21;4.00;;;2.78;;
64361;SDS011;50685;53.346;-6.296;2023-04-25T02:49:47;7.10;;;2.97;;
64361;SDS011;50685;53.346;-6.296;2023-04-25T02:52:12;3.88;;;2.60;;
64361;SDS011;50685;53.346;-6.296;2023-04-25T02:54:39;6.85;;;3.90;;
64361;SDS011;50685;53.346;-6.296;2023-04-25T02:57:05;5.18;;;3.25;;
64361;SDS011;50685;53.346;-6.296;2023-04-25T02:59:31;9.07;;;3.75;;
64361;SDS011;50685;53.346;-6.296;2023-04-25T03:01:57;4.70;;;3.63;;
64361;SDS011;50685;53.346;-6.296;2023-04-25T03:04:22;7.30;;;3.72;;
64361;SDS011;50685;53.346;-6.296;2023-04-25T03:06:49;6.03;;;3.05;;
64361;SDS011;50685;53.346;-6.296;2023-04-25T03:09:15;3.85;;;3.08;;
64361;SDS011;50685;53.346;-6.296;2023-04-25T03:11:41;6.18;;;2.90;;
64361;SDS011;50685;53.346;-6.296;2023-04-25T03:14:06;6.57;;;3.63;;
64361;SDS011;50685;53.346;-6.296;2023-04-25T03:16:32;5.38;;;2.78;;
64361;SDS011;50685;53.346;-6.296;2023-04-25T03:18:58;7.05;;;3.33;;
64361;SDS011;50685;53.346;-6.296;2023-04-25T03:21:23;7.80;;;3.03;;
64361;SDS011;50685;53.346;-6.296;2023-04-25T03:23:49;3.15;;;2.35;;
64361;SDS011;50685;53.346;-6.296;2023-04-25T03:26:14;5.18;;;3.47;;
64361;SDS011;50685;53.346;-6.296;2023-04-25T03:28:40;12.05;;;4.07;;
64361;SDS011;50685;53.346;-6.296;2023-04-25T03:31:06;5.22;;;3.67;;
64361;SDS011;50685;53.346;-6.296;2023-04-25T03:33:31;7.28;;;3.75;;
64361;SDS011;50685;53.346;-6.296;2023-04-25T03:35:57;4.97;;;3.90;;
64361;SDS011;50685;53.346;-6.296;2023-04-25T03:38:22;12.38;;;5.03;;
64361;SDS011;50685;53.346;-6.296;2023-04-25T03:40:48;6.07;;;5.05;;
64361;SDS011;50685;53.346;-6.296;2023-04-25T03:43:15;10.18;;;4.90;;
64361;SDS011;50685;53.346;-6.296;2023-04-25T03:45:41;7.75;;;4.85;;
64361;SDS011;50685;53.346;-6.296;2023-04-25T03:48:07;8.35;;;4.65;;
64361;SDS011;50685;53.346;-6.296;2023-04-25T03:50:32;6.75;;;4.25;;
64361;SDS011;50685;53.346;-6.296;2023-04-25T03:52:58;6.13;;;4.05;;
64361;SDS011;50685;53.346;-6.296;2023-04-25T03:55:23;9.48;;;4.57;;
64361;SDS011;50685;53.346;-6.296;2023-04-25T03:57:49;6.15;;;3.80;;
64361;SDS011;50685;53.346;-6.296;2023-04-25T04:00:14;9.48;;;4.22;;
64361;SDS011;50685;53.346;-6.296;2023-04-25T04:02:40;9.80;;;4.97;;
64361;SDS011;50685;53.346;-6.296;2023-04-25T04:05:05;9.43;;;5.00;;
64361;SDS011;50685;53.346;-6.296;2023-04-25T04:07:31;8.98;;;4.88;;
64361;SDS011;50685;53.346;-6.296;2023-04-25T04:09:58;9.20;;;4.25;;
64361;SDS011;50685;53.346;-6.296;2023-04-25T04:12:24;6.75;;;4.78;;
64361;SDS011;50685;53.346;-6.296;2023-04-25T04:14:49;8.70;;;4.50;;
64361;SDS011;50685;53.346;-6.296;2023-04-25T04:17:15;13.10;;;6.00;;
64361;SDS011;50685;53.346;-6.296;2023-04-25T04:19:40;11.35;;;6.32;;
64361;SDS011;50685;53.346;-6.296;2023-04-25T04:22:06;13.45;;;7.07;;
64361;SDS011;50685;53.346;-6.296;2023-04-25T04:24:31;11.27;;;6.47;;
64361;SDS011;50685;53.346;-6.296;2023-04-25T04:27:00;8.75;;;5.95;;
64361;SDS011;50685;53.346;-6.296;2023-04-25T04:29:25;8.43;;;5.38;;
64361;SDS011;50685;53.346;-6.296;2023-04-25T04:31:51;9.98;;;5.90;;
64361;SDS011;50685;53.346;-6.296;2023-04-25T04:34:17;8.68;;;5.10;;
64361;SDS011;50685;53.346;-6.296;2023-04-25T04:36:43;8.35;;;5.07;;
64361;SDS011;50685;53.346;-6.296;2023-04-25T04:39:12;6.68;;;4.72;;
64361;SDS011;50685;53.346;-6.296;2023-04-25T04:41:38;8.30;;;5.57;;
64361;SDS011;50685;53.346;-6.296;2023-04-25T04:44:04;6.25;;;4.93;;
64361;SDS011;50685;53.346;-6.296;2023-04-25T04:46:31;7.88;;;4.70;;
64361;SDS011;50685;53.346;-6.296;2023-04-25T04:49:03;9.27;;;4.60;;
64361;SDS011;50685;53.346;-6.296;2023-04-25T04:51:29;8.40;;;5.28;;
64361;SDS011;50685;53.346;-6.296;2023-04-25T04:53:56;12.18;;;5.97;;
64361;SDS011;50685;53.346;-6.296;2023-04-25T04:56:23;13.63;;;5.55;;
64361;SDS011;50685;53.346;-6.296;2023-04-25T04:58:50;10.90;;;5.75;;
64361;SDS011;50685;53.346;-6.296;2023-04-25T05:01:17;10.60;;;5.53;;
64361;SDS011;50685;53.346;-6.296;2023-04-25T05:03:43;10.63;;;6.13;;
64361;SDS011;50685;53.346;-6.296;2023-04-25T05:06:08;10.52;;;5.75;;
64361;SDS011;50685;53.346;-6.296;2023-04-25T05:08:36;8.88;;;5.57;;
64361;SDS011;50685;53.346;-6.296;2023-04-25T05:11:02;8.30;;;5.82;;
64361;SDS011;50685;53.346;-6.296;2023-04-25T05:13:28;21.02;;;7.13;;
64361;SDS011;50685;53.346;-6.296;2023-04-25T05:15:53;11.52;;;6.85;;
64361;SDS011;50685;53.346;-6.296;2023-04-25T05:18:19;11.40;;;7.93;;
64361;SDS011;50685;53.346;-6.296;2023-04-25T05:20:44;12.85;;;8.02;;
64361;SDS011;50685;53.346;-6.296;2023-04-25T05:23:10;19.52;;;7.57;;
64361;SDS011;50685;53.346;-6.296;2023-04-25T05:25:35;11.13;;;6.43;;
64361;SDS011;50685;53.346;-6.296;2023-04-25T05:28:01;13.93;;;6.32;;
64361;SDS011;50685;53.346;-6.296;2023-04-25T05:30:26;8.68;;;5.30;;
64361;SDS011;50685;53.346;-6.296;2023-04-25T05:32:52;12.88;;;5.05;;
64361;SDS011;50685;53.346;-6.296;2023-04-25T05:35:17;17.45;;;5.68;;
64361;SDS011;50685;53.346;-6.296;2023-04-25T05:37:43;10.82;;;5.80;;
64361;SDS011;50685;53.346;-6.296;2023-04-25T05:40:08;14.13;;;5.95;;
64361;SDS011;50685;53.346;-6.296;2023-04-25T05:42:36;14.80;;;4.82;;
64361;SDS011;50685;53.346;-6.296;2023-04-25T05:45:02;16.30;;;5.50;;
64361;SDS011;50685;53.346;-6.296;2023-04-25T05:47:30;9.95;;;5.60;;
64361;SDS011;50685;53.346;-6.296;2023-04-25T05:49:55;15.05;;;5.10;;
64361;SDS011;50685;53.346;-6.296;2023-04-25T05:52:21;9.98;;;5.25;;
64361;SDS011;50685;53.346;-6.296;2023-04-25T05:54:46;14.27;;;5.55;;
64361;SDS011;50685;53.346;-6.296;2023-04-25T05:59:50;6.32;;;4.78;;
64361;SDS011;50685;53.346;-6.296;2023-04-25T06:02:17;9.45;;;4.85;;
64361;SDS011;50685;53.346;-6.296;2023-04-25T06:04:43;7.10;;;4.03;;
64361;SDS011;50685;53.346;-6.296;2023-04-25T06:07:08;9.82;;;4.47;;
64361;SDS011;50685;53.346;-6.296;2023-04-25T06:09:34;9.00;;;4.60;;
64361;SDS011;50685;53.346;-6.296;2023-04-25T06:11:59;9.52;;;4.47;;
64361;SDS011;50685;53.346;-6.296;2023-04-25T06:14:26;8.63;;;4.97;;
64361;SDS011;50685;53.346;-6.296;2023-04-25T06:16:52;15.32;;;4.95;;
64361;SDS011;50685;53.346;-6.296;2023-04-25T06:19:18;11.55;;;5.13;;
64361;SDS011;50685;53.346;-6.296;2023-04-25T06:21:43;13.98;;;5.90;;
64361;SDS011;50685;53.346;-6.296;2023-04-25T06:24:09;7.57;;;5.45;;
64361;SDS011;50685;53.346;-6.296;2023-04-25T06:26:35;10.05;;;5.38;;
64361;SDS011;50685;53.346;-6.296;2023-04-25T06:29:40;18.00;;;5.40;;
64361;SDS011;50685;53.346;-6.296;2023-04-25T07:24:45;15.00;;;4.53;;
64361;SDS011;50685;53.346;-6.296;2023-04-25T07:30:16;10.77;;;4.38;;
64361;SDS011;50685;53.346;-6.296;2023-04-25T07:32:51;10.25;;;4.60;;
64361;SDS011;50685;53.346;-6.296;2023-04-25T07:35:21;9.13;;;3.92;;
64361;SDS011;50685;53.346;-6.296;2023-04-25T07:37:47;8.25;;;4.07;;
64361;SDS011;50685;53.346;-6.296;2023-04-25T07:40:13;22.20;;;4.32;;
64361;SDS011;50685;53.346;-6.296;2023-04-25T07:42:40;13.18;;;5.13;;
64361;SDS011;50685;53.346;-6.296;2023-04-25T07:45:08;8.23;;;4.15;;
64361;SDS011;50685;53.346;-6.296;2023-04-25T07:47:34;11.60;;;4.63;;
64361;SDS011;50685;53.346;-6.296;2023-04-25T07:50:00;11.90;;;4.95;;
64361;SDS011;50685;53.346;-6.296;2023-04-25T07:52:25;9.85;;;4.60;;
64361;SDS011;50685;53.346;-6.296;2023-04-25T07:54:51;6.60;;;4.22;;
64361;SDS011;50685;53.346;-6.296;2023-04-25T07:57:16;12.73;;;4.90;;
64361;SDS011;50685;53.346;-6.296;2023-04-25T07:59:44;9.10;;;4.75;;
64361;SDS011;50685;53.346;-6.296;2023-04-25T08:02:09;18.35;;;6.53;;
64361;SDS011;50685;53.346;-6.296;2023-04-25T08:04:38;11.88;;;4.35;;
64361;SDS011;50685;53.346;-6.296;2023-04-25T08:07:03;12.27;;;5.88;;
64361;SDS011;50685;53.346;-6.296;2023-04-25T08:09:29;20.80;;;6.13;;
64361;SDS011;50685;53.346;-6.296;2023-04-25T08:11:58;16.80;;;5.03;;
64361;SDS011;50685;53.346;-6.296;2023-04-25T08:14:25;13.55;;;5.53;;
64361;SDS011;50685;53.346;-6.296;2023-04-25T08:16:53;14.07;;;5.20;;
64361;SDS011;50685;53.346;-6.296;2023-04-25T08:19:19;11.65;;;4.53;;
64361;SDS011;50685;53.346;-6.296;2023-04-25T08:21:44;13.50;;;5.10;;
64361;SDS011;50685;53.346;-6.296;2023-04-25T08:24:12;17.23;;;4.95;;
64361;SDS011;50685;53.346;-6.296;2023-04-25T08:26:42;24.30;;;5.97;;
64361;SDS011;50685;53.346;-6.296;2023-04-25T08:29:10;14.73;;;5.05;;
64361;SDS011;50685;53.346;-6.296;2023-04-25T08:31:36;17.83;;;4.80;;
64361;SDS011;50685;53.346;-6.296;2023-04-25T08:34:02;12.57;;;5.30;;
64361;SDS011;50685;53.346;-6.296;2023-04-25T08:36:27;14.48;;;5.07;;
64361;SDS011;50685;53.346;-6.296;2023-04-25T08:38:53;15.93;;;5.38;;
64361;SDS011;50685;53.346;-6.296;2023-04-25T08:41:19;8.35;;;5.00;;
64361;SDS011;50685;53.346;-6.296;2023-04-25T08:43:47;12.95;;;5.30;;
64361;SDS011;50685;53.346;-6.296;2023-04-25T08:46:13;11.57;;;4.78;;
64361;SDS011;50685;53.346;-6.296;2023-04-25T08:48:45;11.63;;;4.88;;
64361;SDS011;50685;53.346;-6.296;2023-04-25T08:51:15;7.30;;;3.83;;
64361;SDS011;50685;53.346;-6.296;2023-04-25T08:53:50;8.68;;;3.72;;
64361;SDS011;50685;53.346;-6.296;2023-04-25T08:56:17;8.90;;;3.88;;
64361;SDS011;50685;53.346;-6.296;2023-04-25T08:58:47;6.10;;;3.05;;
64361;SDS011;50685;53.346;-6.296;2023-04-25T09:01:13;4.85;;;2.60;;
64361;SDS011;50685;53.346;-6.296;2023-04-25T09:03:41;5.82;;;1.98;;
64361;SDS011;50685;53.346;-6.296;2023-04-25T09:06:09;9.13;;;1.90;;
64361;SDS011;50685;53.346;-6.296;2023-04-25T09:08:36;7.53;;;2.10;;
64361;SDS011;50685;53.346;-6.296;2023-04-25T09:11:02;3.58;;;1.45;;
64361;SDS011;50685;53.346;-6.296;2023-04-25T09:13:32;3.53;;;1.83;;
64361;SDS011;50685;53.346;-6.296;2023-04-25T09:15:58;4.75;;;1.80;;
64361;SDS011;50685;53.346;-6.296;2023-04-25T09:18:28;10.38;;;1.50;;
64361;SDS011;50685;53.346;-6.296;2023-04-25T09:21:05;4.30;;;1.00;;
64361;SDS011;50685;53.346;-6.296;2023-04-25T09:23:38;5.13;;;1.02;;
64361;SDS011;50685;53.346;-6.296;2023-04-25T09:26:11;4.88;;;1.42;;
64361;SDS011;50685;53.346;-6.296;2023-04-25T09:28:39;2.80;;;1.17;;
64361;SDS011;50685;53.346;-6.296;2023-04-25T09:31:09;4.47;;;1.10;;
64361;SDS011;50685;53.346;-6.296;2023-04-25T09:33:36;5.35;;;1.70;;
64361;SDS011;50685;53.346;-6.296;2023-04-25T09:36:06;4.57;;;1.08;;
64361;SDS011;50685;53.346;-6.296;2023-04-25T09:38:39;3.00;;;1.00;;
64361;SDS011;50685;53.346;-6.296;2023-04-25T09:41:07;5.63;;;1.05;;
64361;SDS011;50685;53.346;-6.296;2023-04-25T09:43:33;1.38;;;1.10;;
64361;SDS011;50685;53.346;-6.296;2023-04-25T09:45:59;3.13;;;1.20;;
64361;SDS011;50685;53.346;-6.296;2023-04-25T09:48:26;5.03;;;1.13;;
64361;SDS011;50685;53.346;-6.296;2023-04-25T09:53:44;4.80;;;1.30;;
64361;SDS011;50685;53.346;-6.296;2023-04-25T09:56:14;3.58;;;0.98;;
64361;SDS011;50685;53.346;-6.296;2023-04-25T09:58:41;8.90;;;1.45;;
64361;SDS011;50685;53.346;-6.296;2023-04-25T10:01:08;2.95;;;0.98;;
64361;SDS011;50685;53.346;-6.296;2023-04-25T10:03:36;4.68;;;1.20;;
64361;SDS011;50685;53.346;-6.296;2023-04-25T10:06:08;4.93;;;1.00;;
64361;SDS011;50685;53.346;-6.296;2023-04-25T10:08:39;3.35;;;1.10;;
64361;SDS011;50685;53.346;-6.296;2023-04-25T10:11:06;4.57;;;1.05;;
64361;SDS011;50685;53.346;-6.296;2023-04-25T10:13:33;7.18;;;1.60;;
64361;SDS011;50685;53.346;-6.296;2023-04-25T10:16:04;6.88;;;1.50;;
64361;SDS011;50685;53.346;-6.296;2023-04-25T10:18:34;4.95;;;1.23;;
64361;SDS011;50685;53.346;-6.296;2023-04-25T10:21:01;9.52;;;1.77;;
64361;SDS011;50685;53.346;-6.296;2023-04-25T10:23:29;5.28;;;1.00;;
64361;SDS011;50685;53.346;-6.296;2023-04-25T10:25:56;3.13;;;1.08;;
64361;SDS011;50685;53.346;-6.296;2023-04-25T10:28:22;1.83;;;0.90;;
64361;SDS011;50685;53.346;-6.296;2023-04-25T10:33:46;6.60;;;1.20;;
64361;SDS011;50685;53.346;-6.296;2023-04-25T10:36:12;2.97;;;1.20;;
64361;SDS011;50685;53.346;-6.296;2023-04-25T10:38:39;2.80;;;1.00;;
64361;SDS011;50685;53.346;-6.296;2023-04-25T10:41:05;4.25;;;1.08;;
64361;SDS011;50685;53.346;-6.296;2023-04-25T10:43:45;4.25;;;1.48;;
64361;SDS011;50685;53.346;-6.296;2023-04-25T10:48:46;10.60;;;1.35;;
64361;SDS011;50685;53.346;-6.296;2023-04-25T10:53:59;6.63;;;1.20;;
64361;SDS011;50685;53.346;-6.296;2023-04-25T10:56:32;4.93;;;1.30;;
64361;SDS011;50685;53.346;-6.296;2023-04-25T11:01:51;3.80;;;1.20;;
64361;SDS011;50685;53.346;-6.296;2023-04-25T11:04:22;2.50;;;1.40;;
64361;SDS011;50685;53.346;-6.296;2023-04-25T11:07:03;4.85;;;1.27;;
64361;SDS011;50685;53.346;-6.296;2023-04-25T11:09:39;13.75;;;1.42;;
64361;SDS011;50685;53.346;-6.296;2023-04-25T11:12:10;5.40;;;1.52;;
64361;SDS011;50685;53.346;-6.296;2023-04-25T11:14:36;3.47;;;1.00;;
64361;SDS011;50685;53.346;-6.296;2023-04-25T11:17:02;3.88;;;1.30;;
64361;SDS011;50685;53.346;-6.296;2023-04-25T11:19:30;5.55;;;1.63;;
64361;SDS011;50685;53.346;-6.296;2023-04-25T11:21:56;3.15;;;0.95;;
64361;SDS011;50685;53.346;-6.296;2023-04-25T11:24:30;5.55;;;1.38;;
64361;SDS011;50685;53.346;-6.296;2023-04-25T11:27:02;6.47;;;1.33;;
64361;SDS011;50685;53.346;-6.296;2023-04-25T11:29:31;4.00;;;1.30;;
64361;SDS011;50685;53.346;-6.296;2023-04-25T11:31:58;2.05;;;1.00;;
64361;SDS011;50685;53.346;-6.296;2023-04-25T11:34:26;4.78;;;1.50;;
64361;SDS011;50685;53.346;-6.296;2023-04-25T11:36:55;3.38;;;1.15;;
64361;SDS011;50685;53.346;-6.296;2023-04-25T11:39:21;2.45;;;0.90;;
64361;SDS011;50685;53.346;-6.296;2023-04-25T11:41:52;3.78;;;1.15;;
64361;SDS011;50685;53.346;-6.296;2023-04-25T11:44:18;2.63;;;1.10;;
64361;SDS011;50685;53.346;-6.296;2023-04-25T11:46:44;7.47;;;1.38;;
64361;SDS011;50685;53.346;-6.296;2023-04-25T11:49:10;2.60;;;1.00;;
64361;SDS011;50685;53.346;-6.296;2023-04-25T11:51:43;6.30;;;1.15;;
64361;SDS011;50685;53.346;-6.296;2023-04-25T11:54:10;4.60;;;1.25;;
64361;SDS011;50685;53.346;-6.296;2023-04-25T11:56:37;5.07;;;1.42;;
64361;SDS011;50685;53.346;-6.296;2023-04-25T11:59:03;6.32;;;1.33;;
64361;SDS011;50685;53.346;-6.296;2023-04-25T12:01:31;6.97;;;1.92;;
64361;SDS011;50685;53.346;-6.296;2023-04-25T12:03:58;4.90;;;1.73;;
64361;SDS011;50685;53.346;-6.296;2023-04-25T12:06:45;2.97;;;1.40;;
64361;SDS011;50685;53.346;-6.296;2023-04-25T12:09:13;8.05;;;1.88;;
64361;SDS011;50685;53.346;-6.296;2023-04-25T12:11:47;3.53;;;1.05;;
64361;SDS011;50685;53.346;-6.296;2023-04-25T12:14:27;2.53;;;1.25;;
64361;SDS011;50685;53.346;-6.296;2023-04-25T12:16:57;4.22;;;1.42;;
64361;SDS011;50685;53.346;-6.296;2023-04-25T12:19:24;6.18;;;2.05;;
64361;SDS011;50685;53.346;-6.296;2023-04-25T12:21:51;5.22;;;1.85;;
64361;SDS011;50685;53.346;-6.296;2023-04-25T12:24:18;5.05;;;1.60;;
64361;SDS011;50685;53.346;-6.296;2023-04-25T12:29:20;6.05;;;1.55;;
64361;SDS011;50685;53.346;-6.296;2023-04-25T12:31:47;2.55;;;1.50;;
64361;SDS011;50685;53.346;-6.296;2023-04-25T12:34:13;5.18;;;1.35;;
64361;SDS011;50685;53.346;-6.296;2023-04-25T12:36:39;6.50;;;1.40;;
64361;SDS011;50685;53.346;-6.296;2023-04-25T12:39:05;4.40;;;1.02;;
64361;SDS011;50685;53.346;-6.296;2023-04-25T12:41:31;2.72;;;1.15;;
64361;SDS011;50685;53.346;-6.296;2023-04-25T12:43:57;10.40;;;1.40;;
64361;SDS011;50685;53.346;-6.296;2023-04-25T12:46:22;6.43;;;1.38;;
64361;SDS011;50685;53.346;-6.296;2023-04-25T12:48:50;3.88;;;1.50;;
64361;SDS011;50685;53.346;-6.296;2023-04-25T12:51:16;4.40;;;1.30;;
64361;SDS011;50685;53.346;-6.296;2023-04-25T12:53:44;4.85;;;1.33;;
64361;SDS011;50685;53.346;-6.296;2023-04-25T12:56:15;5.95;;;1.35;;
64361;SDS011;50685;53.346;-6.296;2023-04-25T12:58:40;6.30;;;1.52;;
64361;SDS011;50685;53.346;-6.296;2023-04-25T13:01:06;2.67;;;1.25;;
64361;SDS011;50685;53.346;-6.296;2023-04-25T13:03:32;3.33;;;1.25;;
64361;SDS011;50685;53.346;-6.296;2023-04-25T13:05:57;5.97;;;1.70;;
64361;SDS011;50685;53.346;-6.296;2023-04-25T13:08:23;4.97;;;1.70;;
64361;SDS011;50685;53.346;-6.296;2023-04-25T13:10:49;7.57;;;2.35;;
64361;SDS011;50685;53.346;-6.296;2023-04-25T13:13:14;5.03;;;1.38;;
64361;SDS011;50685;53.346;-6.296;2023-04-25T13:15:41;7.57;;;1.67;;
64361;SDS011;50685;53.346;-6.296;2023-04-25T13:18:07;7.78;;;2.30;;
64361;SDS011;50685;53.346;-6.296;2023-04-25T13:20:33;5.22;;;1.45;;
64361;SDS011;50685;53.346;-6.296;2023-04-25T13:23:01;8.07;;;1.52;;
64361;SDS011;50685;53.346;-6.296;2023-04-25T13:25:26;14.32;;;2.63;;
64361;SDS011;50685;53.346;-6.296;2023-04-25T13:27:54;12.40;;;2.55;;
64361;SDS011;50685;53.346;-6.296;2023-04-25T13:30:20;5.70;;;1.65;;
64361;SDS011;50685;53.346;-6.296;2023-04-25T13:32:49;4.70;;;1.70;;
64361;SDS011;50685;53.346;-6.296;2023-04-25T13:35:14;6.10;;;2.20;;
64361;SDS011;50685;53.346;-6.296;2023-04-25T13:37:40;10.48;;;2.38;;
64361;SDS011;50685;53.346;-6.296;2023-04-25T13:40:06;12.48;;;3.08;;
64361;SDS011;50685;53.346;-6.296;2023-04-25T13:42:35;8.77;;;2.20;;
64361;SDS011;50685;53.346;-6.296;2023-04-25T13:45:03;4.53;;;1.75;;
64361;SDS011;50685;53.346;-6.296;2023-04-25T13:47:29;5.13;;;1.90;;
64361;SDS011;50685;53.346;-6.296;2023-04-25T13:49:56;6.50;;;2.10;;
64361;SDS011;50685;53.346;-6.296;2023-04-25T13:52:22;9.13;;;2.15;;
64361;SDS011;50685;53.346;-6.296;2023-04-25T13:54:49;5.75;;;2.00;;
64361;SDS011;50685;53.346;-6.296;2023-04-25T13:57:17;5.75;;;1.92;;
64361;SDS011;50685;53.346;-6.296;2023-04-25T13:59:46;10.05;;;1.80;;
64361;SDS011;50685;53.346;-6.296;2023-04-25T14:02:11;6.85;;;1.85;;
64361;SDS011;50685;53.346;-6.296;2023-04-25T14:04:37;9.52;;;2.22;;
64361;SDS011;50685;53.346;-6.296;2023-04-25T14:07:05;10.18;;;1.85;;
64361;SDS011;50685;53.346;-6.296;2023-04-25T14:09:31;5.32;;;1.98;;
64361;SDS011;50685;53.346;-6.296;2023-04-25T14:11:57;4.28;;;2.20;;
64361;SDS011;50685;53.346;-6.296;2023-04-25T14:14:22;8.93;;;1.88;;
64361;SDS011;50685;53.346;-6.296;2023-04-25T14:16:49;6.65;;;2.03;;
64361;SDS011;50685;53.346;-6.296;2023-04-25T14:19:15;6.68;;;1.70;;
64361;SDS011;50685;53.346;-6.296;2023-04-25T14:21:41;6.97;;;1.80;;
64361;SDS011;50685;53.346;-6.296;2023-04-25T14:24:08;15.00;;;1.98;;
64361;SDS011;50685;53.346;-6.296;2023-04-25T14:26:34;6.35;;;1.60;;
64361;SDS011;50685;53.346;-6.296;2023-04-25T14:29:01;5.63;;;1.63;;
64361;SDS011;50685;53.346;-6.296;2023-04-25T14:31:27;5.20;;;1.42;;
64361;SDS011;50685;53.346;-6.296;2023-04-25T14:33:53;4.78;;;1.85;;
64361;SDS011;50685;53.346;-6.296;2023-04-25T14:36:18;8.15;;;1.27;;
64361;SDS011;50685;53.346;-6.296;2023-04-25T14:38:44;4.65;;;1.67;;
64361;SDS011;50685;53.346;-6.296;2023-04-25T14:41:10;6.70;;;1.60;;
64361;SDS011;50685;53.346;-6.296;2023-04-25T14:43:36;5.80;;;1.52;;
64361;SDS011;50685;53.346;-6.296;2023-04-25T14:46:02;6.35;;;1.77;;
64361;SDS011;50685;53.346;-6.296;2023-04-25T14:48:28;2.92;;;1.58;;
64361;SDS011;50685;53.346;-6.296;2023-04-25T14:50:54;7.75;;;1.98;;
64361;SDS011;50685;53.346;-6.296;2023-04-25T14:53:21;8.57;;;1.17;;
64361;SDS011;50685;53.346;-6.296;2023-04-25T14:55:57;7.10;;;1.77;;
64361;SDS011;50685;53.346;-6.296;2023-04-25T14:58:55;4.13;;;1.48;;
64361;SDS011;50685;53.346;-6.296;2023-04-25T15:08:01;9.98;;;1.63;;
64361;SDS011;50685;53.346;-6.296;2023-04-25T15:10:30;5.47;;;2.15;;
64361;SDS011;50685;53.346;-6.296;2023-04-25T15:12:56;8.60;;;1.58;;
64361;SDS011;50685;53.346;-6.296;2023-04-25T15:45:04;6.80;;;2.55;;
64361;SDS011;50685;53.346;-6.296;2023-04-25T15:48:22;4.43;;;1.50;;
64361;SDS011;50685;53.346;-6.296;2023-04-25T16:06:52;4.35;;;1.90;;
64361;SDS011;50685;53.346;-6.296;2023-04-25T16:11:56;11.85;;;2.95;;
64361;SDS011;50685;53.346;-6.296;2023-04-25T16:16:54;9.40;;;2.28;;
64361;SDS011;50685;53.346;-6.296;2023-04-25T16:19:29;7.95;;;2.78;;
64361;SDS011;50685;53.346;-6.296;2023-04-25T16:21:59;10.68;;;2.67;;
64361;SDS011;50685;53.346;-6.296;2023-04-25T16:24:35;5.00;;;2.03;;
64361;SDS011;50685;53.346;-6.296;2023-04-25T16:27:07;10.75;;;2.38;;
64361;SDS011;50685;53.346;-6.296;2023-04-25T16:29:39;12.95;;;2.80;;
64361;SDS011;50685;53.346;-6.296;2023-04-25T16:32:22;10.10;;;2.95;;
64361;SDS011;50685;53.346;-6.296;2023-04-25T16:37:23;8.13;;;2.33;;
64361;SDS011;50685;53.346;-6.296;2023-04-25T16:39:51;6.85;;;2.10;;
64361;SDS011;50685;53.346;-6.296;2023-04-25T16:42:16;11.63;;;2.45;;
64361;SDS011;50685;53.346;-6.296;2023-04-25T16:44:42;5.82;;;2.25;;
64361;SDS011;50685;53.346;-6.296;2023-04-25T16:47:07;6.20;;;2.13;;